Terminal Aerodrome Forecast
Issued by NWS Twin Cities, MN

Home | Current Version | Previous Version | Graphics & Text | Print | Product List | Glossary On
Versions: 1 2 3 4 5 6 7 8 9 10 11 12 13 14 15 16 17 18 19 20 21 22 23 24 25 26
000
FTUS43 KMPX 290800 AAA
TAFMSP
TAF AMD
KMSP 290845Z 2909/3012 30012G22KT P6SM SCT025 OVC050
     FM291030 30010G18KT P6SM SCT015 BKN020 BKN040
     FM291800 30007KT P6SM BKN030
     FM292100 27005KT P6SM SCT040
     FM300600 16006KT P6SM SCT110=

USA.gov is the U.S. government's official web portal to all federal, state and local government web resources and services.